New Prague, MN (56071)

8:52 AM CDT on August 29, 2015 (GMT -0500)
Lincoln Ave | | Change Station
CLOSE
Current Station
Personal Weather Station
Location: New Prague, MN
Elevation: 1019 ft
Nearby Weather Stations

Elev 1019 ft 44.54 °N, 93.57 °W | Updated 2 minutes ago

Fog
Fog
58.2 °F
Feels Like 58.2 °F
N
0.0
Wind Variable Wind from NE
Gusts 1.0 mph

Today
High -- | Low -- °F
--% Chance of Precip.
Yesterday
High -- | Low -- °F
Precip. -- in
6:32 AM 7:56 PM
Full, 100% visible
Pressure 30.07 in
Visibility 1.0 miles
Clouds Overcast 200 ft
Dew Point 57 °F
Humidity 95%
Rainfall 0.00 in
Snow Depth Not available.
UV 0 out of 12
Pollen 8.30 out of 12
Air Quality Not available.
Flu Activity Not available.
METAR KLVN 291326Z AUTO 00000KT 1SM BR OVC002 13/13 A3007 RMK AO2
Pressure 30.07 in
Visibility 1.0 miles
Clouds Overcast 200 ft
Dew Point 57 °F
Humidity 95%
Rainfall 0.00 in
Snow Depth Not available.
UV 0 out of 12
Pollen 8.30 out of 12
Air Quality Not available.
Flu Activity Not available.
METAR KLVN 291326Z AUTO 00000KT 1SM BR OVC002 13/13 A3007 RMK AO2

10-Day Weather Forecast

×

Almanac

Astronomy

Aug. 29, 2015 Rise Set
Actual Time
Civil Twilight
Nautical Twilight
Astronomical Twilight
Moon
Length of Visible Light
Length of Day
Tomorrow will be .
, % of the Moon is Illuminated

Today's Extremes

State Highs State Lows

Community

WunderPhotos

Upload Photos

1,850,686 photos uploaded!

WunderBlogs® & News

Nearby

Air Quality

  Air Quality AQ Index Pollutant
Not available.

Snow Depth

Station Depth Elevation

Earthquake Activity

City Distance Mag. Time & Date
Minimum magnitude displayed is 2.5.

Coastal Water Temperatures

Place Temperature

Stations

Nearby Weather Stations

Station Location Temp. Windchill Dew Point Humidity Wind Precip. Elev Updated Type